sensor_id;sensor_type;location;lat;lon;timestamp;P1;P2;P0
72307;PMS5003;60257;42.638;23.376;2024-01-15T00:02:07;72.00;57.25;39.25
72307;PMS5003;60257;42.638;23.376;2024-01-15T00:04:37;78.00;59.50;34.00
72307;PMS5003;60257;42.638;23.376;2024-01-15T00:07:06;81.75;62.00;35.50
72307;PMS5003;60257;42.638;23.376;2024-01-15T00:09:32;80.00;63.00;38.00
72307;PMS5003;60257;42.638;23.376;2024-01-15T00:11:58;73.25;58.75;32.00
72307;PMS5003;60257;42.638;23.376;2024-01-15T00:14:24;74.25;57.50;33.25
72307;PMS5003;60257;42.638;23.376;2024-01-15T00:16:50;80.00;63.00;37.25
72307;PMS5003;60257;42.638;23.376;2024-01-15T00:19:16;68.75;47.75;22.00
72307;PMS5003;60257;42.638;23.376;2024-01-15T00:21:43;81.00;60.50;36.50
72307;PMS5003;60257;42.638;23.376;2024-01-15T00:24:09;85.25;62.25;37.50
72307;PMS5003;60257;42.638;23.376;2024-01-15T00:26:34;77.25;59.50;33.75
72307;PMS5003;60257;42.638;23.376;2024-01-15T00:29:00;72.00;58.25;34.00
72307;PMS5003;60257;42.638;23.376;2024-01-15T00:31:25;79.25;60.25;36.50
72307;PMS5003;60257;42.638;23.376;2024-01-15T00:33:51;85.75;67.75;40.00
72307;PMS5003;60257;42.638;23.376;2024-01-15T00:36:17;66.25;57.00;36.25
72307;PMS5003;60257;42.638;23.376;2024-01-15T00:38:43;58.75;48.75;28.75
72307;PMS5003;60257;42.638;23.376;2024-01-15T00:41:09;83.00;65.50;39.75
72307;PMS5003;60257;42.638;23.376;2024-01-15T00:43:34;67.50;50.75;31.75
72307;PMS5003;60257;42.638;23.376;2024-01-15T00:46:01;75.00;57.50;33.00
72307;PMS5003;60257;42.638;23.376;2024-01-15T00:48:27;67.75;52.50;28.75
72307;PMS5003;60257;42.638;23.376;2024-01-15T00:50:53;81.25;63.25;37.25
72307;PMS5003;60257;42.638;23.376;2024-01-15T00:53:19;81.75;61.75;35.50
72307;PMS5003;60257;42.638;23.376;2024-01-15T00:55:47;78.25;60.75;34.75
72307;PMS5003;60257;42.638;23.376;2024-01-15T00:58:13;79.00;64.00;35.25
72307;PMS5003;60257;42.638;23.376;2024-01-15T01:00:38;78.75;63.75;39.25
72307;PMS5003;60257;42.638;23.376;2024-01-15T01:03:04;81.00;63.75;38.25
72307;PMS5003;60257;42.638;23.376;2024-01-15T01:05:29;77.25;62.25;37.75
72307;PMS5003;60257;42.638;23.376;2024-01-15T01:07:54;73.00;53.75;36.50
72307;PMS5003;60257;42.638;23.376;2024-01-15T01:10:20;73.00;60.25;38.75
72307;PMS5003;60257;42.638;23.376;2024-01-15T01:12:45;72.50;53.75;36.00
72307;PMS5003;60257;42.638;23.376;2024-01-15T01:15:10;76.25;57.75;36.50
72307;PMS5003;60257;42.638;23.376;2024-01-15T01:17:36;74.00;60.25;35.75
72307;PMS5003;60257;42.638;23.376;2024-01-15T01:20:01;75.50;60.25;38.00
72307;PMS5003;60257;42.638;23.376;2024-01-15T01:22:29;71.75;57.25;33.50
72307;PMS5003;60257;42.638;23.376;2024-01-15T01:24:55;69.25;51.75;29.00
72307;PMS5003;60257;42.638;23.376;2024-01-15T01:27:20;76.00;59.75;35.50
72307;PMS5003;60257;42.638;23.376;2024-01-15T01:29:45;66.50;54.00;26.00
72307;PMS5003;60257;42.638;23.376;2024-01-15T01:32:11;73.00;57.50;34.00
72307;PMS5003;60257;42.638;23.376;2024-01-15T01:34:40;66.50;51.50;32.25
72307;PMS5003;60257;42.638;23.376;2024-01-15T01:37:09;72.25;58.50;35.25
72307;PMS5003;60257;42.638;23.376;2024-01-15T01:39:37;74.00;58.75;35.50
72307;PMS5003;60257;42.638;23.376;2024-01-15T01:42:03;76.25;60.75;34.75
72307;PMS5003;60257;42.638;23.376;2024-01-15T01:44:28;72.75;60.00;36.50
72307;PMS5003;60257;42.638;23.376;2024-01-15T01:46:53;83.75;66.00;40.00
72307;PMS5003;60257;42.638;23.376;2024-01-15T01:49:19;91.25;69.75;41.25
72307;PMS5003;60257;42.638;23.376;2024-01-15T01:51:44;82.25;65.25;41.00
72307;PMS5003;60257;42.638;23.376;2024-01-15T01:54:12;84.25;67.75;41.25
72307;PMS5003;60257;42.638;23.376;2024-01-15T01:56:39;82.75;63.50;42.50
72307;PMS5003;60257;42.638;23.376;2024-01-15T01:59:05;89.50;67.75;40.00
72307;PMS5003;60257;42.638;23.376;2024-01-15T02:01:32;81.00;62.75;36.00
72307;PMS5003;60257;42.638;23.376;2024-01-15T02:03:58;81.25;61.75;40.75
72307;PMS5003;60257;42.638;23.376;2024-01-15T02:06:24;78.75;66.00;36.00
72307;PMS5003;60257;42.638;23.376;2024-01-15T02:08:50;78.50;58.75;35.25
72307;PMS5003;60257;42.638;23.376;2024-01-15T02:11:15;83.75;66.25;40.25
72307;PMS5003;60257;42.638;23.376;2024-01-15T02:13:40;87.00;64.00;37.50
72307;PMS5003;60257;42.638;23.376;2024-01-15T02:16:06;74.75;59.00;35.25
72307;PMS5003;60257;42.638;23.376;2024-01-15T02:18:45;85.75;66.50;41.00
72307;PMS5003;60257;42.638;23.376;2024-01-15T02:21:11;83.00;64.00;40.00
72307;PMS5003;60257;42.638;23.376;2024-01-15T02:23:37;71.25;61.00;39.00
72307;PMS5003;60257;42.638;23.376;2024-01-15T02:26:03;81.50;60.75;36.00
72307;PMS5003;60257;42.638;23.376;2024-01-15T02:28:30;74.25;60.25;37.25
72307;PMS5003;60257;42.638;23.376;2024-01-15T02:30:56;76.00;61.00;34.25
72307;PMS5003;60257;42.638;23.376;2024-01-15T02:33:22;69.50;56.75;40.00
72307;PMS5003;60257;42.638;23.376;2024-01-15T02:35:47;71.50;57.50;34.50
72307;PMS5003;60257;42.638;23.376;2024-01-15T02:38:15;73.50;59.25;35.00
72307;PMS5003;60257;42.638;23.376;2024-01-15T02:40:40;75.00;60.00;36.00
72307;PMS5003;60257;42.638;23.376;2024-01-15T02:43:06;68.50;55.25;31.50
72307;PMS5003;60257;42.638;23.376;2024-01-15T02:45:32;67.75;57.00;36.00
72307;PMS5003;60257;42.638;23.376;2024-01-15T02:47:57;73.00;57.50;34.00
72307;PMS5003;60257;42.638;23.376;2024-01-15T02:50:23;66.25;54.00;30.25
72307;PMS5003;60257;42.638;23.376;2024-01-15T02:52:51;60.00;48.00;30.75
72307;PMS5003;60257;42.638;23.376;2024-01-15T02:55:17;71.25;53.00;31.00
72307;PMS5003;60257;42.638;23.376;2024-01-15T02:57:42;79.75;60.00;35.25
72307;PMS5003;60257;42.638;23.376;2024-01-15T03:00:08;70.50;55.75;32.25
72307;PMS5003;60257;42.638;23.376;2024-01-15T03:02:37;70.25;56.00;35.00
72307;PMS5003;60257;42.638;23.376;2024-01-15T03:05:08;58.00;46.25;27.25
72307;PMS5003;60257;42.638;23.376;2024-01-15T03:07:36;66.75;52.25;32.25
72307;PMS5003;60257;42.638;23.376;2024-01-15T03:10:02;53.75;39.75;14.00
72307;PMS5003;60257;42.638;23.376;2024-01-15T03:12:28;61.25;49.00;34.00
72307;PMS5003;60257;42.638;23.376;2024-01-15T03:14:53;18.75;13.50;12.50
72307;PMS5003;60257;42.638;23.376;2024-01-15T03:17:19;70.00;55.25;34.00
72307;PMS5003;60257;42.638;23.376;2024-01-15T03:19:44;66.50;51.75;31.25
72307;PMS5003;60257;42.638;23.376;2024-01-15T03:22:10;71.00;54.75;33.00
72307;PMS5003;60257;42.638;23.376;2024-01-15T03:24:35;67.75;54.50;32.00
72307;PMS5003;60257;42.638;23.376;2024-01-15T03:27:01;70.00;51.25;30.50
72307;PMS5003;60257;42.638;23.376;2024-01-15T03:29:27;49.50;46.75;32.25
72307;PMS5003;60257;42.638;23.376;2024-01-15T03:31:52;65.25;52.75;32.00
72307;PMS5003;60257;42.638;23.376;2024-01-15T03:34:18;57.00;47.25;29.25
72307;PMS5003;60257;42.638;23.376;2024-01-15T03:36:43;56.00;48.25;29.50
72307;PMS5003;60257;42.638;23.376;2024-01-15T03:39:09;58.25;47.00;31.00
72307;PMS5003;60257;42.638;23.376;2024-01-15T03:41:34;65.75;48.75;32.00
72307;PMS5003;60257;42.638;23.376;2024-01-15T03:44:00;59.25;49.00;30.00
72307;PMS5003;60257;42.638;23.376;2024-01-15T03:46:26;51.50;43.25;26.50
72307;PMS5003;60257;42.638;23.376;2024-01-15T03:48:52;60.75;45.75;29.50
72307;PMS5003;60257;42.638;23.376;2024-01-15T03:51:17;69.50;50.25;33.75
72307;PMS5003;60257;42.638;23.376;2024-01-15T03:53:43;66.75;53.00;32.00
72307;PMS5003;60257;42.638;23.376;2024-01-15T03:56:08;54.50;44.50;30.25
72307;PMS5003;60257;42.638;23.376;2024-01-15T03:58:34;73.50;60.00;37.00
72307;PMS5003;60257;42.638;23.376;2024-01-15T04:00:59;77.00;60.75;38.50
72307;PMS5003;60257;42.638;23.376;2024-01-15T04:03:24;77.25;60.00;35.25
72307;PMS5003;60257;42.638;23.376;2024-01-15T04:05:50;75.75;61.00;37.75
72307;PMS5003;60257;42.638;23.376;2024-01-15T04:08:15;80.25;62.75;39.25
72307;PMS5003;60257;42.638;23.376;2024-01-15T04:10:40;81.50;64.25;38.00
72307;PMS5003;60257;42.638;23.376;2024-01-15T04:13:06;76.50;60.25;37.25
72307;PMS5003;60257;42.638;23.376;2024-01-15T04:15:32;87.75;68.25;41.50
72307;PMS5003;60257;42.638;23.376;2024-01-15T04:17:57;87.00;69.25;42.25
72307;PMS5003;60257;42.638;23.376;2024-01-15T04:20:22;81.75;64.75;41.00
72307;PMS5003;60257;42.638;23.376;2024-01-15T04:22:48;72.75;58.00;36.25
72307;PMS5003;60257;42.638;23.376;2024-01-15T04:25:13;82.00;65.25;39.00
72307;PMS5003;60257;42.638;23.376;2024-01-15T04:27:39;82.25;63.75;39.75
72307;PMS5003;60257;42.638;23.376;2024-01-15T04:30:04;82.00;64.50;41.50
72307;PMS5003;60257;42.638;23.376;2024-01-15T04:32:30;83.25;64.00;34.50
72307;PMS5003;60257;42.638;23.376;2024-01-15T04:34:55;86.75;65.25;38.25
72307;PMS5003;60257;42.638;23.376;2024-01-15T04:37:21;63.25;49.00;30.00
72307;PMS5003;60257;42.638;23.376;2024-01-15T04:39:46;81.00;60.75;35.50
72307;PMS5003;60257;42.638;23.376;2024-01-15T04:42:12;81.75;63.25;38.75
72307;PMS5003;60257;42.638;23.376;2024-01-15T04:44:37;82.50;66.00;39.00
72307;PMS5003;60257;42.638;23.376;2024-01-15T04:47:02;75.75;59.00;39.25
72307;PMS5003;60257;42.638;23.376;2024-01-15T04:49:28;81.50;64.50;40.00
72307;PMS5003;60257;42.638;23.376;2024-01-15T04:51:54;85.50;66.00;38.00
72307;PMS5003;60257;42.638;23.376;2024-01-15T04:54:20;82.25;62.25;38.00
72307;PMS5003;60257;42.638;23.376;2024-01-15T04:56:45;89.00;71.00;42.00
72307;PMS5003;60257;42.638;23.376;2024-01-15T04:59:11;84.00;65.25;41.25
72307;PMS5003;60257;42.638;23.376;2024-01-15T05:01:36;77.75;64.25;37.75
72307;PMS5003;60257;42.638;23.376;2024-01-15T05:04:02;85.25;66.50;42.00
72307;PMS5003;60257;42.638;23.376;2024-01-15T05:06:28;83.25;66.00;41.50
72307;PMS5003;60257;42.638;23.376;2024-01-15T05:08:53;97.25;70.75;42.75
72307;PMS5003;60257;42.638;23.376;2024-01-15T05:11:18;95.25;73.00;43.25
72307;PMS5003;60257;42.638;23.376;2024-01-15T05:13:44;85.25;64.75;41.25
72307;PMS5003;60257;42.638;23.376;2024-01-15T05:16:09;67.75;55.00;30.00
72307;PMS5003;60257;42.638;23.376;2024-01-15T05:18:35;80.75;62.75;37.25
72307;PMS5003;60257;42.638;23.376;2024-01-15T05:21:02;78.25;62.00;40.00
72307;PMS5003;60257;42.638;23.376;2024-01-15T05:23:28;85.25;66.25;38.25
72307;PMS5003;60257;42.638;23.376;2024-01-15T05:25:53;74.75;57.75;35.00
72307;PMS5003;60257;42.638;23.376;2024-01-15T05:28:19;76.00;62.50;37.50
72307;PMS5003;60257;42.638;23.376;2024-01-15T05:30:44;77.00;60.25;34.00
72307;PMS5003;60257;42.638;23.376;2024-01-15T05:33:09;66.25;53.25;34.50
72307;PMS5003;60257;42.638;23.376;2024-01-15T05:35:35;72.25;57.75;34.00
72307;PMS5003;60257;42.638;23.376;2024-01-15T05:38:01;64.75;49.75;31.75
72307;PMS5003;60257;42.638;23.376;2024-01-15T05:40:27;78.00;61.00;36.00
72307;PMS5003;60257;42.638;23.376;2024-01-15T05:42:53;83.50;64.25;40.00
72307;PMS5003;60257;42.638;23.376;2024-01-15T05:45:18;77.25;60.75;36.75
72307;PMS5003;60257;42.638;23.376;2024-01-15T05:47:44;82.00;65.25;40.25
72307;PMS5003;60257;42.638;23.376;2024-01-15T05:50:09;82.50;65.25;39.50
72307;PMS5003;60257;42.638;23.376;2024-01-15T05:52:35;97.75;71.75;43.00
72307;PMS5003;60257;42.638;23.376;2024-01-15T05:55:01;88.25;66.50;42.00
72307;PMS5003;60257;42.638;23.376;2024-01-15T05:57:26;101.50;75.00;45.50
72307;PMS5003;60257;42.638;23.376;2024-01-15T05:59:52;93.50;73.25;48.50
72307;PMS5003;60257;42.638;23.376;2024-01-15T06:02:18;88.00;68.25;45.75
72307;PMS5003;60257;42.638;23.376;2024-01-15T06:04:43;93.25;73.00;44.00
72307;PMS5003;60257;42.638;23.376;2024-01-15T06:07:09;95.50;72.75;46.00
72307;PMS5003;60257;42.638;23.376;2024-01-15T06:09:34;84.25;70.75;45.50
72307;PMS5003;60257;42.638;23.376;2024-01-15T06:12:00;100.50;75.25;46.00
72307;PMS5003;60257;42.638;23.376;2024-01-15T06:14:25;93.50;74.00;43.00
72307;PMS5003;60257;42.638;23.376;2024-01-15T06:16:51;95.25;72.00;42.00
72307;PMS5003;60257;42.638;23.376;2024-01-15T06:19:17;99.75;77.00;46.00
72307;PMS5003;60257;42.638;23.376;2024-01-15T06:21:42;102.00;76.75;46.50
72307;PMS5003;60257;42.638;23.376;2024-01-15T06:24:08;98.75;73.50;46.50
72307;PMS5003;60257;42.638;23.376;2024-01-15T06:26:35;99.75;78.25;48.50
72307;PMS5003;60257;42.638;23.376;2024-01-15T06:29:00;97.25;76.00;46.25
72307;PMS5003;60257;42.638;23.376;2024-01-15T06:31:26;87.25;65.50;43.75
72307;PMS5003;60257;42.638;23.376;2024-01-15T06:33:51;99.00;75.00;46.75
72307;PMS5003;60257;42.638;23.376;2024-01-15T06:36:16;100.00;77.50;50.25
72307;PMS5003;60257;42.638;23.376;2024-01-15T06:38:45;98.25;76.50;49.25
72307;PMS5003;60257;42.638;23.376;2024-01-15T06:41:10;97.75;73.00;44.75
72307;PMS5003;60257;42.638;23.376;2024-01-15T06:43:35;90.75;71.50;40.25
72307;PMS5003;60257;42.638;23.376;2024-01-15T06:46:01;78.75;63.00;32.25
72307;PMS5003;60257;42.638;23.376;2024-01-15T06:48:26;102.00;78.75;49.00
72307;PMS5003;60257;42.638;23.376;2024-01-15T06:50:52;104.75;77.00;47.25
72307;PMS5003;60257;42.638;23.376;2024-01-15T06:53:17;92.75;74.25;46.25
72307;PMS5003;60257;42.638;23.376;2024-01-15T06:55:43;92.75;70.00;42.50
72307;PMS5003;60257;42.638;23.376;2024-01-15T06:58:08;91.50;70.75;41.50
72307;PMS5003;60257;42.638;23.376;2024-01-15T07:00:34;102.00;80.75;48.50
72307;PMS5003;60257;42.638;23.376;2024-01-15T07:02:59;89.75;70.50;44.00
72307;PMS5003;60257;42.638;23.376;2024-01-15T07:05:25;90.75;71.75;45.00
72307;PMS5003;60257;42.638;23.376;2024-01-15T07:07:50;97.75;74.75;47.00
72307;PMS5003;60257;42.638;23.376;2024-01-15T07:10:15;99.00;74.25;47.00
72307;PMS5003;60257;42.638;23.376;2024-01-15T07:12:42;102.00;81.50;49.50
72307;PMS5003;60257;42.638;23.376;2024-01-15T07:15:08;110.75;96.25;55.25
72307;PMS5003;60257;42.638;23.376;2024-01-15T07:17:34;97.50;74.75;47.75
72307;PMS5003;60257;42.638;23.376;2024-01-15T07:20:00;104.50;82.00;47.75
72307;PMS5003;60257;42.638;23.376;2024-01-15T07:22:25;105.00;85.25;49.00
72307;PMS5003;60257;42.638;23.376;2024-01-15T07:24:51;100.00;79.00;48.25
72307;PMS5003;60257;42.638;23.376;2024-01-15T07:27:16;96.00;74.50;46.75
72307;PMS5003;60257;42.638;23.376;2024-01-15T07:29:42;105.25;90.75;53.25
72307;PMS5003;60257;42.638;23.376;2024-01-15T07:32:10;105.50;90.75;51.75
72307;PMS5003;60257;42.638;23.376;2024-01-15T07:34:36;96.00;79.75;48.75
72307;PMS5003;60257;42.638;23.376;2024-01-15T07:37:01;104.25;81.75;54.25
72307;PMS5003;60257;42.638;23.376;2024-01-15T07:39:27;91.00;73.75;48.00
72307;PMS5003;60257;42.638;23.376;2024-01-15T07:41:53;104.00;86.75;48.50
72307;PMS5003;60257;42.638;23.376;2024-01-15T07:44:19;105.75;85.25;53.00
72307;PMS5003;60257;42.638;23.376;2024-01-15T07:46:45;111.50;93.75;58.75
72307;PMS5003;60257;42.638;23.376;2024-01-15T07:49:13;96.00;74.25;44.50
72307;PMS5003;60257;42.638;23.376;2024-01-15T07:51:39;106.00;84.00;49.00
72307;PMS5003;60257;42.638;23.376;2024-01-15T07:54:08;84.00;67.50;42.25
72307;PMS5003;60257;42.638;23.376;2024-01-15T07:56:34;96.75;73.50;46.25
72307;PMS5003;60257;42.638;23.376;2024-01-15T07:59:00;95.75;75.75;43.25
72307;PMS5003;60257;42.638;23.376;2024-01-15T08:01:25;88.25;68.75;43.75
72307;PMS5003;60257;42.638;23.376;2024-01-15T08:03:51;69.00;51.75;32.50
72307;PMS5003;60257;42.638;23.376;2024-01-15T08:06:18;79.00;61.75;39.00
72307;PMS5003;60257;42.638;23.376;2024-01-15T08:08:43;86.75;68.25;41.75
72307;PMS5003;60257;42.638;23.376;2024-01-15T08:11:08;79.75;63.25;38.00
72307;PMS5003;60257;42.638;23.376;2024-01-15T08:13:34;78.00;60.50;38.50
72307;PMS5003;60257;42.638;23.376;2024-01-15T08:15:59;77.00;62.25;37.50
72307;PMS5003;60257;42.638;23.376;2024-01-15T08:18:24;78.50;60.00;37.00
72307;PMS5003;60257;42.638;23.376;2024-01-15T08:20:50;72.00;60.00;34.00
72307;PMS5003;60257;42.638;23.376;2024-01-15T08:23:17;78.50;61.75;38.00
72307;PMS5003;60257;42.638;23.376;2024-01-15T08:25:42;79.75;62.75;37.50
72307;PMS5003;60257;42.638;23.376;2024-01-15T08:28:07;80.50;64.25;39.25
72307;PMS5003;60257;42.638;23.376;2024-01-15T08:30:33;75.00;57.75;36.25
72307;PMS5003;60257;42.638;23.376;2024-01-15T08:32:59;80.75;62.25;38.25
72307;PMS5003;60257;42.638;23.376;2024-01-15T08:35:25;80.00;63.00;40.25
72307;PMS5003;60257;42.638;23.376;2024-01-15T08:37:50;76.75;59.50;39.75
72307;PMS5003;60257;42.638;23.376;2024-01-15T08:40:16;75.50;59.25;36.00
72307;PMS5003;60257;42.638;23.376;2024-01-15T08:42:42;70.75;58.00;33.00
72307;PMS5003;60257;42.638;23.376;2024-01-15T08:45:08;98.00;74.25;46.50
72307;PMS5003;60257;42.638;23.376;2024-01-15T08:47:33;79.50;65.75;39.75
72307;PMS5003;60257;42.638;23.376;2024-01-15T08:49:59;88.50;69.50;43.00
72307;PMS5003;60257;42.638;23.376;2024-01-15T08:52:25;68.75;55.50;32.75
72307;PMS5003;60257;42.638;23.376;2024-01-15T08:54:50;77.75;59.75;37.75
72307;PMS5003;60257;42.638;23.376;2024-01-15T08:57:16;86.75;66.00;39.00
72307;PMS5003;60257;42.638;23.376;2024-01-15T08:59:41;88.50;66.00;42.00
72307;PMS5003;60257;42.638;23.376;2024-01-15T09:02:07;86.25;67.75;43.00
72307;PMS5003;60257;42.638;23.376;2024-01-15T09:04:33;72.00;57.25;38.00
72307;PMS5003;60257;42.638;23.376;2024-01-15T09:06:58;82.50;62.50;39.00
72307;PMS5003;60257;42.638;23.376;2024-01-15T09:09:24;82.75;65.00;40.25
72307;PMS5003;60257;42.638;23.376;2024-01-15T09:11:50;75.75;61.25;39.25
72307;PMS5003;60257;42.638;23.376;2024-01-15T09:14:16;77.75;62.75;39.00
72307;PMS5003;60257;42.638;23.376;2024-01-15T09:16:42;76.75;60.75;37.50
72307;PMS5003;60257;42.638;23.376;2024-01-15T09:19:07;75.75;61.25;39.50
72307;PMS5003;60257;42.638;23.376;2024-01-15T09:21:33;78.50;62.50;38.50
72307;PMS5003;60257;42.638;23.376;2024-01-15T09:23:58;78.00;63.25;37.25
72307;PMS5003;60257;42.638;23.376;2024-01-15T09:26:24;81.25;62.75;39.25
72307;PMS5003;60257;42.638;23.376;2024-01-15T09:28:49;106.25;88.00;52.00
72307;PMS5003;60257;42.638;23.376;2024-01-15T09:31:15;145.75;130.25;77.75
72307;PMS5003;60257;42.638;23.376;2024-01-15T09:33:42;154.25;138.25;80.50
72307;PMS5003;60257;42.638;23.376;2024-01-15T09:36:09;154.00;137.25;80.25
72307;PMS5003;60257;42.638;23.376;2024-01-15T09:38:34;164.25;148.50;85.75
72307;PMS5003;60257;42.638;23.376;2024-01-15T09:41:00;145.00;135.50;80.50
72307;PMS5003;60257;42.638;23.376;2024-01-15T09:43:25;141.50;122.50;73.75
72307;PMS5003;60257;42.638;23.376;2024-01-15T09:45:51;154.75;139.00;85.00
72307;PMS5003;60257;42.638;23.376;2024-01-15T09:48:18;161.75;141.25;79.25
72307;PMS5003;60257;42.638;23.376;2024-01-15T09:50:44;137.00;118.50;73.25
72307;PMS5003;60257;42.638;23.376;2024-01-15T09:53:10;158.50;140.50;85.00
72307;PMS5003;60257;42.638;23.376;2024-01-15T09:55:37;158.00;136.00;81.75
72307;PMS5003;60257;42.638;23.376;2024-01-15T09:58:03;147.50;123.25;65.00
72307;PMS5003;60257;42.638;23.376;2024-01-15T10:00:29;148.25;128.00;79.25
72307;PMS5003;60257;42.638;23.376;2024-01-15T10:02:57;141.00;123.00;69.25
72307;PMS5003;60257;42.638;23.376;2024-01-15T10:05:25;113.50;105.50;62.00
72307;PMS5003;60257;42.638;23.376;2024-01-15T10:07:51;113.75;104.75;67.00
72307;PMS5003;60257;42.638;23.376;2024-01-15T10:10:18;104.25;95.25;54.00
72307;PMS5003;60257;42.638;23.376;2024-01-15T10:12:44;104.75;94.75;55.75
72307;PMS5003;60257;42.638;23.376;2024-01-15T10:15:09;104.75;96.50;55.50
72307;PMS5003;60257;42.638;23.376;2024-01-15T10:17:38;106.00;90.50;52.25
72307;PMS5003;60257;42.638;23.376;2024-01-15T10:20:12;100.25;82.25;49.75
72307;PMS5003;60257;42.638;23.376;2024-01-15T10:22:41;113.50;102.25;63.00
72307;PMS5003;60257;42.638;23.376;2024-01-15T10:25:12;112.00;104.75;60.75
72307;PMS5003;60257;42.638;23.376;2024-01-15T10:27:38;102.75;87.00;54.00
72307;PMS5003;60257;42.638;23.376;2024-01-15T10:30:05;93.00;72.50;44.50
72307;PMS5003;60257;42.638;23.376;2024-01-15T10:32:31;112.00;101.75;62.50
72307;PMS5003;60257;42.638;23.376;2024-01-15T10:34:57;90.75;73.75;43.50
72307;PMS5003;60257;42.638;23.376;2024-01-15T10:37:23;95.25;73.75;45.25
72307;PMS5003;60257;42.638;23.376;2024-01-15T10:39:49;79.00;62.75;36.00
72307;PMS5003;60257;42.638;23.376;2024-01-15T10:42:15;87.25;66.75;40.75
72307;PMS5003;60257;42.638;23.376;2024-01-15T10:44:42;86.25;68.25;42.75
72307;PMS5003;60257;42.638;23.376;2024-01-15T10:47:08;103.50;88.75;51.50
72307;PMS5003;60257;42.638;23.376;2024-01-15T10:49:34;82.00;64.00;41.50
72307;PMS5003;60257;42.638;23.376;2024-01-15T10:52:00;88.50;67.50;42.50
72307;PMS5003;60257;42.638;23.376;2024-01-15T10:54:26;93.00;75.75;45.50
72307;PMS5003;60257;42.638;23.376;2024-01-15T10:56:52;89.75;73.75;45.50
72307;PMS5003;60257;42.638;23.376;2024-01-15T10:59:20;105.75;89.50;48.25
72307;PMS5003;60257;42.638;23.376;2024-01-15T11:01:46;86.50;64.50;39.50
72307;PMS5003;60257;42.638;23.376;2024-01-15T11:04:12;98.75;77.50;46.00
72307;PMS5003;60257;42.638;23.376;2024-01-15T11:06:44;86.25;67.75;39.00
72307;PMS5003;60257;42.638;23.376;2024-01-15T11:09:12;97.75;76.75;44.25
72307;PMS5003;60257;42.638;23.376;2024-01-15T11:11:41;94.00;72.00;45.00
72307;PMS5003;60257;42.638;23.376;2024-01-15T11:14:09;88.00;68.00;41.00
72307;PMS5003;60257;42.638;23.376;2024-01-15T11:16:53;86.00;67.00;42.25
72307;PMS5003;60257;42.638;23.376;2024-01-15T11:19:21;87.25;67.75;44.00
72307;PMS5003;60257;42.638;23.376;2024-01-15T11:21:47;81.50;65.25;42.00
72307;PMS5003;60257;42.638;23.376;2024-01-15T11:24:32;98.00;80.75;48.25
72307;PMS5003;60257;42.638;23.376;2024-01-15T11:27:00;80.50;62.75;39.00
72307;PMS5003;60257;42.638;23.376;2024-01-15T11:31:58;80.25;61.75;38.50
72307;PMS5003;60257;42.638;23.376;2024-01-15T11:37:15;84.25;66.00;40.75
72307;PMS5003;60257;42.638;23.376;2024-01-15T11:39:42;69.00;57.00;35.00
72307;PMS5003;60257;42.638;23.376;2024-01-15T11:42:09;80.25;60.50;36.25
72307;PMS5003;60257;42.638;23.376;2024-01-15T11:44:36;80.75;63.50;40.00
72307;PMS5003;60257;42.638;23.376;2024-01-15T11:52:22;69.75;56.00;39.00
72307;PMS5003;60257;42.638;23.376;2024-01-15T11:57:51;81.00;64.50;40.00
72307;PMS5003;60257;42.638;23.376;2024-01-15T12:00:19;73.50;59.00;39.25
72307;PMS5003;60257;42.638;23.376;2024-01-15T12:02:46;76.50;61.00;39.00
72307;PMS5003;60257;42.638;23.376;2024-01-15T12:05:14;80.50;61.00;39.00
72307;PMS5003;60257;42.638;23.376;2024-01-15T12:07:40;83.25;67.50;40.00
72307;PMS5003;60257;42.638;23.376;2024-01-15T12:10:12;88.25;68.25;42.50
72307;PMS5003;60257;42.638;23.376;2024-01-15T12:15:24;77.50;61.50;38.25
72307;PMS5003;60257;42.638;23.376;2024-01-15T12:17:51;72.50;58.00;35.00
72307;PMS5003;60257;42.638;23.376;2024-01-15T12:20:17;73.25;61.25;40.25
72307;PMS5003;60257;42.638;23.376;2024-01-15T12:22:43;67.50;52.25;32.50
72307;PMS5003;60257;42.638;23.376;2024-01-15T12:25:09;72.00;59.50;36.75
72307;PMS5003;60257;42.638;23.376;2024-01-15T12:27:34;77.25;60.00;38.00
72307;PMS5003;60257;42.638;23.376;2024-01-15T12:30:00;71.50;57.00;35.50
72307;PMS5003;60257;42.638;23.376;2024-01-15T12:32:26;63.75;54.00;35.00
72307;PMS5003;60257;42.638;23.376;2024-01-15T12:34:51;75.50;61.00;38.25
72307;PMS5003;60257;42.638;23.376;2024-01-15T12:37:19;79.50;63.00;39.50
72307;PMS5003;60257;42.638;23.376;2024-01-15T12:39:45;75.25;58.50;37.00
72307;PMS5003;60257;42.638;23.376;2024-01-15T12:42:11;62.75;50.50;29.50
72307;PMS5003;60257;42.638;23.376;2024-01-15T12:44:39;71.75;57.25;33.50
72307;PMS5003;60257;42.638;23.376;2024-01-15T12:47:04;71.00;54.25;32.25
72307;PMS5003;60257;42.638;23.376;2024-01-15T12:49:30;71.75;57.50;35.00
72307;PMS5003;60257;42.638;23.376;2024-01-15T12:51:59;70.25;57.25;35.25
72307;PMS5003;60257;42.638;23.376;2024-01-15T12:54:25;66.50;54.00;35.25
72307;PMS5003;60257;42.638;23.376;2024-01-15T12:56:51;77.00;59.25;37.75
72307;PMS5003;60257;42.638;23.376;2024-01-15T12:59:17;71.75;56.75;34.25
72307;PMS5003;60257;42.638;23.376;2024-01-15T13:01:43;69.25;55.75;35.25
72307;PMS5003;60257;42.638;23.376;2024-01-15T13:04:09;82.00;63.75;38.25
72307;PMS5003;60257;42.638;23.376;2024-01-15T13:06:35;80.00;63.25;39.75
72307;PMS5003;60257;42.638;23.376;2024-01-15T13:09:01;85.75;67.00;42.50
72307;PMS5003;60257;42.638;23.376;2024-01-15T13:11:30;72.00;55.50;35.50
72307;PMS5003;60257;42.638;23.376;2024-01-15T13:13:55;78.50;64.00;40.25
72307;PMS5003;60257;42.638;23.376;2024-01-15T13:16:22;87.75;68.50;43.00
72307;PMS5003;60257;42.638;23.376;2024-01-15T13:18:47;96.25;83.75;48.00
72307;PMS5003;60257;42.638;23.376;2024-01-15T13:21:14;90.00;75.75;46.50
72307;PMS5003;60257;42.638;23.376;2024-01-15T13:23:40;87.00;66.00;42.25
72307;PMS5003;60257;42.638;23.376;2024-01-15T13:26:05;80.25;63.25;38.25
72307;PMS5003;60257;42.638;23.376;2024-01-15T13:28:32;79.75;62.25;38.00
72307;PMS5003;60257;42.638;23.376;2024-01-15T13:30:57;87.25;68.25;43.25
72307;PMS5003;60257;42.638;23.376;2024-01-15T13:33:23;90.25;77.00;47.00
72307;PMS5003;60257;42.638;23.376;2024-01-15T13:35:48;85.00;66.25;41.25
72307;PMS5003;60257;42.638;23.376;2024-01-15T13:38:15;83.00;64.50;39.00
72307;PMS5003;60257;42.638;23.376;2024-01-15T13:40:41;88.50;69.50;42.00
72307;PMS5003;60257;42.638;23.376;2024-01-15T13:43:06;76.50;62.25;40.25